Time;durP1;ratioP1;P1;durP2;ratioP2;P2;SDS_P1;SDS_P2;PMS_P1;PMS_P2;Temp;Humidity;BMP_temperature;BMP_pressure;BME280_temperature;BME280_humidity;BME280_pressure;Samples;Min_cycle;Max_cycle;Signal;HPM_P1;HPM_P2
2023/03/06 00:01:31;;;;;;;0.63;0.63;;;;;;;;;;6184837;23;20180;-89
2023/03/06 00:04:01;;;;;;;0.77;0.73;;;;;;;;;;6184591;23;20168;-89
2023/03/06 00:06:35;;;;;;;0.83;0.83;;;;;;;;;;6157717;23;20231;-88
2023/03/06 00:09:04;;;;;;;0.43;0.43;;;;;;;;;;6185787;23;20237;-89
2023/03/06 00:11:37;;;;;;;0.13;0.13;;;;;;;;;;6184743;23;20192;-88
2023/03/06 00:14:08;;;;;;;0.80;0.80;;;;;;;;;;6184747;23;20182;-87
2023/03/06 00:16:40;;;;;;;0.50;0.50;;;;;;;;;;6185956;23;20178;-89
2023/03/06 00:19:10;;;;;;;0.73;0.73;;;;;;;;;;6185898;23;20188;-89
2023/03/06 00:22:02;;;;;;;;;;;;;;;;;;;;;
2023/03/06 00:24:31;;;;;;;0.03;0.03;;;;;;;;;;6185116;23;20172;-87
2023/03/06 00:27:08;;;;;;;0.30;0.30;;;;;;;;;;6184403;23;20172;-87
2023/03/06 00:29:39;;;;;;;0.40;0.40;;;;;;;;;;6182636;23;20206;-87
2023/03/06 00:32:15;;;;;;;0.37;0.37;;;;;;;;;;6158326;23;20230;-88
2023/03/06 00:37:50;;;;;;;0.43;0.43;;;;;;;;;;6150821;23;20204;-87
2023/03/06 00:40:20;;;;;;;0.17;0.17;;;;;;;;;;6154729;23;20183;-88
2023/03/06 00:43:01;;;;;;;0.37;0.37;;;;;;;;;;6156127;23;20165;-87
2023/03/06 00:45:50;;;;;;;1.73;0.83;;;;;;;;;;6154217;23;20173;-88
2023/03/06 00:48:24;;;;;;;0.70;0.70;;;;;;;;;;6155863;23;20169;-87
2023/03/06 00:51:00;;;;;;;0.97;0.63;;;;;;;;;;6155164;23;20203;-88
2023/03/06 00:53:38;;;;;;;0.50;0.47;;;;;;;;;;6154017;23;20547;-89
2023/03/06 00:56:17;;;;;;;1.53;1.43;;;;;;;;;;6154378;23;20180;-87
2023/03/06 00:58:57;;;;;;;1.50;1.20;;;;;;;;;;6153405;23;20200;-86
2023/03/06 01:01:28;;;;;;;4.43;1.17;;;;;;;;;;6155421;23;20203;-87
2023/03/06 01:04:04;;;;;;;2.03;1.93;;;;;;;;;;6166341;23;20211;-88
2023/03/06 01:06:34;;;;;;;0.63;0.63;;;;;;;;;;6153939;23;20165;-89
2023/03/06 01:09:03;;;;;;;0.00;0.00;;;;;;;;;;6155327;23;20196;-90
2023/03/06 01:11:49;;;;;;;0.13;0.13;;;;;;;;;;6154785;23;20208;-87
2023/03/06 01:14:23;;;;;;;0.27;0.23;;;;;;;;;;6154240;23;20172;-88
2023/03/06 01:16:51;;;;;;;2.93;0.50;;;;;;;;;;6154266;23;20173;-86
2023/03/06 01:19:32;;;;;;;0.93;0.50;;;;;;;;;;6155766;23;20169;-88
2023/03/06 01:22:01;;;;;;;0.47;0.47;;;;;;;;;;6153000;23;20204;-88
2023/03/06 01:24:30;;;;;;;0.00;0.00;;;;;;;;;;6153932;23;20176;-87
2023/03/06 01:27:03;;;;;;;0.80;0.80;;;;;;;;;;6153634;23;20188;-88
2023/03/06 01:29:39;;;;;;;0.50;0.50;;;;;;;;;;6154070;23;20633;-88
2023/03/06 01:35:03;;;;;;;0.37;0.37;;;;;;;;;;6151800;23;20264;-86
2023/03/06 01:37:31;;;;;;;0.67;0.67;;;;;;;;;;6175716;23;20558;-86
2023/03/06 01:40:05;;;;;;;1.67;1.17;;;;;;;;;;6184195;23;20168;-88
2023/03/06 01:42:33;;;;;;;2.43;1.33;;;;;;;;;;6196034;23;20178;-86
2023/03/06 01:45:08;;;;;;;0.63;0.57;;;;;;;;;;6199839;23;20219;-89
2023/03/06 01:47:37;;;;;;;0.90;0.87;;;;;;;;;;6192492;23;20223;-87
2023/03/06 01:50:05;;;;;;;0.50;0.30;;;;;;;;;;6200044;23;20204;-88
2023/03/06 01:52:35;;;;;;;0.50;0.50;;;;;;;;;;6202518;23;20227;-87
2023/03/06 01:55:05;;;;;;;1.60;1.03;;;;;;;;;;6199187;23;20172;-87
2023/03/06 01:57:38;;;;;;;2.43;0.50;;;;;;;;;;6186444;23;20506;-87
2023/03/06 02:00:12;;;;;;;0.20;0.20;;;;;;;;;;6194602;23;20478;-87
2023/03/06 02:02:44;;;;;;;0.30;0.30;;;;;;;;;;6203339;23;20170;-86
2023/03/06 02:05:14;;;;;;;0.13;0.13;;;;;;;;;;6203655;23;20195;-86
2023/03/06 02:07:43;;;;;;;0.10;0.10;;;;;;;;;;6194719;23;20207;-88
2023/03/06 02:10:12;;;;;;;4.40;1.30;;;;;;;;;;6188211;23;20210;-88
2023/03/06 02:12:42;;;;;;;0.47;0.47;;;;;;;;;;6192258;23;20177;-87
2023/03/06 02:15:12;;;;;;;0.80;0.80;;;;;;;;;;6197067;23;20187;-87
2023/03/06 02:17:43;;;;;;;0.60;0.60;;;;;;;;;;6198274;23;20184;-87
2023/03/06 02:20:18;;;;;;;5.10;1.13;;;;;;;;;;6194133;23;20234;-87
2023/03/06 02:22:49;;;;;;;0.40;0.40;;;;;;;;;;6189901;23;20187;-88
2023/03/06 02:25:39;;;;;;;1.27;0.87;;;;;;;;;;6184387;23;20178;-87
2023/03/06 02:28:13;;;;;;;0.67;0.67;;;;;;;;;;6176640;23;20260;-89
2023/03/06 02:30:44;;;;;;;0.47;0.47;;;;;;;;;;6185149;23;20195;-87
2023/03/06 02:33:16;;;;;;;0.23;0.23;;;;;;;;;;6185178;23;20690;-87
2023/03/06 02:35:48;;;;;;;0.30;0.30;;;;;;;;;;6159077;23;20256;-88
2023/03/06 02:38:25;;;;;;;0.30;0.30;;;;;;;;;;6187025;23;20172;-86
2023/03/06 02:40:56;;;;;;;0.97;0.97;;;;;;;;;;6191053;23;20640;-87
2023/03/06 02:43:39;;;;;;;0.30;0.30;;;;;;;;;;6188499;23;20179;-87
2023/03/06 02:46:13;;;;;;;0.33;0.33;;;;;;;;;;6191198;23;20190;-87
2023/03/06 02:48:45;;;;;;;0.80;0.80;;;;;;;;;;6188530;23;20255;-89
2023/03/06 02:51:15;;;;;;;0.93;0.87;;;;;;;;;;6189998;23;20223;-87
2023/03/06 02:53:45;;;;;;;0.27;0.27;;;;;;;;;;6193287;23;20187;-87
2023/03/06 02:56:18;;;;;;;0.13;0.13;;;;;;;;;;6194984;23;20243;-87
2023/03/06 02:58:50;;;;;;;0.70;0.63;;;;;;;;;;6200468;23;20172;-87
2023/03/06 03:01:23;;;;;;;0.70;0.70;;;;;;;;;;6206824;23;20168;-88
2023/03/06 03:03:52;;;;;;;0.63;0.63;;;;;;;;;;6202405;23;20178;-86
2023/03/06 03:09:36;;;;;;;0.10;0.10;;;;;;;;;;6202854;23;20182;-88
2023/03/06 03:12:08;;;;;;;0.33;0.33;;;;;;;;;;6205487;23;20211;-89
2023/03/06 03:14:38;;;;;;;0.30;0.30;;;;;;;;;;6208652;23;20168;-87
2023/03/06 03:17:07;;;;;;;0.83;0.83;;;;;;;;;;6209084;23;20176;-89
2023/03/06 03:19:38;;;;;;;0.43;0.43;;;;;;;;;;6207780;23;20172;-88
2023/03/06 03:22:12;;;;;;;0.47;0.47;;;;;;;;;;6204415;23;20207;-88
2023/03/06 03:24:40;;;;;;;0.23;0.23;;;;;;;;;;6207660;23;20184;-89
2023/03/06 03:27:10;;;;;;;0.10;0.10;;;;;;;;;;6201949;23;20179;-86
2023/03/06 03:29:45;;;;;;;0.10;0.10;;;;;;;;;;6200782;23;20168;-85
2023/03/06 03:32:26;;;;;;;0.90;0.90;;;;;;;;;;6198884;23;20251;-89
2023/03/06 03:34:59;;;;;;;0.40;0.40;;;;;;;;;;6193490;23;20688;-88
2023/03/06 03:37:29;;;;;;;0.87;0.87;;;;;;;;;;6200799;23;20271;-88
2023/03/06 03:39:59;;;;;;;0.50;0.47;;;;;;;;;;6205332;23;20183;-88
2023/03/06 03:42:27;;;;;;;0.63;0.63;;;;;;;;;;6204913;23;20199;-86
2023/03/06 03:45:01;;;;;;;1.80;0.40;;;;;;;;;;6206146;23;20172;-87
2023/03/06 03:47:30;;;;;;;2.57;1.03;;;;;;;;;;6203280;23;20168;-87
2023/03/06 03:50:02;;;;;;;3.23;0.93;;;;;;;;;;6204545;23;20168;-87
2023/03/06 03:52:41;;;;;;;0.70;0.70;;;;;;;;;;6204734;23;20173;-86
2023/03/06 03:55:13;;;;;;;0.70;0.70;;;;;;;;;;6203086;23;20229;-86
2023/03/06 03:57:44;;;;;;;0.67;0.30;;;;;;;;;;6202234;23;20168;-87
2023/03/06 04:00:21;;;;;;;0.10;0.10;;;;;;;;;;6204114;23;20219;-86
2023/03/06 04:02:56;;;;;;;2.10;1.90;;;;;;;;;;6206922;23;20572;-88
2023/03/06 04:05:27;;;;;;;0.57;0.57;;;;;;;;;;6202359;23;20243;-86
2023/03/06 04:08:00;;;;;;;0.67;0.60;;;;;;;;;;6201852;23;20183;-86
2023/03/06 04:10:33;;;;;;;1.40;1.37;;;;;;;;;;6201702;23;20254;-88
2023/03/06 04:13:04;;;;;;;0.90;0.40;;;;;;;;;;6204286;23;20631;-89
2023/03/06 04:15:38;;;;;;;2.07;0.53;;;;;;;;;;6195189;23;20583;-88
2023/03/06 04:18:08;;;;;;;1.10;0.37;;;;;;;;;;6197693;23;20180;-89
2023/03/06 04:20:35;;;;;;;1.50;1.10;;;;;;;;;;6193189;23;20179;-87
2023/03/06 04:23:07;;;;;;;2.97;1.33;;;;;;;;;;6201108;23;20187;-89
2023/03/06 04:25:40;;;;;;;0.53;0.53;;;;;;;;;;6201340;23;20168;-86
2023/03/06 04:28:12;;;;;;;0.87;0.87;;;;;;;;;;6203437;23;20168;-90
2023/03/06 04:30:44;;;;;;;0.40;0.40;;;;;;;;;;6205379;23;20211;-87
2023/03/06 04:33:16;;;;;;;0.80;0.80;;;;;;;;;;6206701;23;20187;-87
2023/03/06 04:35:47;;;;;;;0.23;0.23;;;;;;;;;;6207001;23;20176;-87
2023/03/06 04:38:16;;;;;;;0.50;0.50;;;;;;;;;;6205767;23;20211;-85
2023/03/06 04:40:52;;;;;;;0.70;0.70;;;;;;;;;;6196866;23;20191;-88
2023/03/06 04:43:25;;;;;;;1.47;0.60;;;;;;;;;;6197690;23;20179;-88
2023/03/06 04:45:58;;;;;;;0.77;0.77;;;;;;;;;;6203575;23;20188;-89
2023/03/06 04:48:35;;;;;;;1.73;0.77;;;;;;;;;;6203643;23;20191;-86
2023/03/06 04:51:03;;;;;;;0.23;0.23;;;;;;;;;;6204538;23;20199;-88
2023/03/06 04:53:32;;;;;;;1.53;1.13;;;;;;;;;;6202774;23;20169;-86
2023/03/06 04:56:05;;;;;;;0.50;0.50;;;;;;;;;;6202005;23;20168;-86
2023/03/06 04:58:35;;;;;;;1.70;0.80;;;;;;;;;;6200880;23;20172;-87
2023/03/06 05:01:10;;;;;;;1.57;1.27;;;;;;;;;;6203550;23;20179;-88
2023/03/06 05:09:46;;;;;;;5.80;1.87;;;;;;;;;;6199821;23;20171;-89
2023/03/06 05:12:14;;;;;;;0.23;0.23;;;;;;;;;;6188387;23;20223;-87
2023/03/06 05:14:42;;;;;;;0.83;0.83;;;;;;;;;;6186608;23;20168;-89
2023/03/06 05:17:15;;;;;;;0.63;0.63;;;;;;;;;;6185304;23;20227;-89
2023/03/06 05:19:43;;;;;;;0.17;0.17;;;;;;;;;;6185227;23;20164;-89
2023/03/06 05:22:19;;;;;;;2.83;0.50;;;;;;;;;;6184828;23;20583;-87
2023/03/06 05:24:51;;;;;;;4.27;3.10;;;;;;;;;;6183720;23;20202;-87
2023/03/06 05:27:20;;;;;;;0.43;0.43;;;;;;;;;;6183109;23;20532;-88
2023/03/06 05:29:54;;;;;;;0.17;0.17;;;;;;;;;;6183769;23;20172;-90
2023/03/06 05:32:45;;;;;;;0.30;0.30;;;;;;;;;;6181290;23;20550;-89
2023/03/06 05:35:31;;;;;;;0.70;0.70;;;;;;;;;;6181670;23;20586;-88
2023/03/06 05:38:00;;;;;;;0.70;0.70;;;;;;;;;;6182700;23;20387;-87
2023/03/06 05:40:37;;;;;;;0.20;0.20;;;;;;;;;;6187130;23;20238;-87
2023/03/06 05:43:11;;;;;;;0.83;0.83;;;;;;;;;;6184260;23;20172;-88
2023/03/06 05:45:49;;;;;;;1.17;0.70;;;;;;;;;;6183183;23;20275;-89
2023/03/06 05:48:23;;;;;;;0.60;0.60;;;;;;;;;;6184573;23;20524;-89
2023/03/06 05:51:05;;;;;;;2.13;0.70;;;;;;;;;;6184154;23;20167;-87
2023/03/06 05:53:39;;;;;;;0.63;0.63;;;;;;;;;;6185481;23;20164;-88
2023/03/06 05:56:13;;;;;;;0.73;0.60;;;;;;;;;;6183355;23;20187;-89
2023/03/06 05:58:51;;;;;;;0.77;0.77;;;;;;;;;;6181879;23;20247;-86
2023/03/06 06:01:21;;;;;;;3.70;0.53;;;;;;;;;;6181898;23;20175;-87
2023/03/06 06:03:59;;;;;;;0.63;0.63;;;;;;;;;;6183031;23;20171;-87
2023/03/06 06:06:39;;;;;;;1.70;0.97;;;;;;;;;;6183425;23;20171;-87
2023/03/06 06:09:07;;;;;;;0.30;0.30;;;;;;;;;;6184392;23;20518;-88
2023/03/06 06:11:35;;;;;;;0.60;0.60;;;;;;;;;;6184367;23;20228;-89
2023/03/06 06:14:03;;;;;;;1.30;1.20;;;;;;;;;;6185548;23;20192;-88
2023/03/06 06:19:25;;;;;;;1.03;1.03;;;;;;;;;;6181026;23;20172;-89
2023/03/06 06:22:01;;;;;;;1.80;1.33;;;;;;;;;;6182438;23;20167;-89
2023/03/06 06:24:32;;;;;;;2.37;2.30;;;;;;;;;;6187145;23;20178;-89
2023/03/06 06:27:00;;;;;;;1.17;1.07;;;;;;;;;;6184824;23;20529;-89
2023/03/06 06:29:32;;;;;;;1.30;1.20;;;;;;;;;;6185166;23;20252;-90
2023/03/06 06:32:01;;;;;;;0.93;0.93;;;;;;;;;;6184620;23;20202;-89
2023/03/06 06:34:30;;;;;;;1.40;1.30;;;;;;;;;;6159398;23;20196;-89
2023/03/06 06:37:20;;;;;;;1.30;1.20;;;;;;;;;;6184117;23;20211;-89
2023/03/06 06:40:01;;;;;;;0.70;0.67;;;;;;;;;;6183604;23;20198;-88
2023/03/06 06:42:35;;;;;;;2.20;2.10;;;;;;;;;;6185361;23;20171;-90
2023/03/06 06:45:04;;;;;;;0.65;0.65;;;;;;;;;;6185404;23;20174;-89
2023/03/06 06:47:43;;;;;;;1.23;1.15;;;;;;;;;;6182447;23;20170;-91
2023/03/06 06:50:14;;;;;;;2.28;1.60;;;;;;;;;;6183158;23;20178;-89
2023/03/06 06:52:45;;;;;;;3.13;2.42;;;;;;;;;;6184600;23;20272;-88
2023/03/06 06:55:17;;;;;;;1.25;1.10;;;;;;;;;;6182750;23;20186;-89
2023/03/06 06:57:46;;;;;;;1.85;1.75;;;;;;;;;;6184642;23;20250;-89
2023/03/06 07:00:15;;;;;;;5.68;1.45;;;;;;;;;;6183913;23;20180;-89
2023/03/06 07:02:47;;;;;;;1.58;1.05;;;;;;;;;;6184750;23;20198;-90
2023/03/06 07:05:15;;;;;;;0.90;0.90;;;;;;;;;;6188516;23;20169;-89
2023/03/06 07:07:51;;;;;;;0.75;0.75;;;;;;;;;;6189273;23;20523;-88
2023/03/06 07:10:23;;;;;;;1.13;1.08;;;;;;;;;;6185705;23;20196;-89
2023/03/06 07:12:53;;;;;;;1.20;1.20;;;;;;;;;;6192626;23;20200;-88
2023/03/06 07:15:36;;;;;;;0.98;0.85;;;;;;;;;;6196061;23;20171;-87
2023/03/06 07:18:04;;;;;;;1.60;1.10;;;;;;;;;;6191148;23;20230;-90
2023/03/06 07:20:55;;;;;;;0.80;0.80;;;;;;;;;;6200082;23;20186;-88
2023/03/06 07:23:29;;;;;;;3.28;1.45;;;;;;;;;;6186376;23;20174;-89
2023/03/06 07:26:00;;;;;;;0.98;0.98;;;;;;;;;;6196570;23;20177;-89
2023/03/06 07:28:27;;;;;;;2.65;1.27;;;;;;;;;;6199941;23;20169;-89
2023/03/06 07:30:58;;;;;;;2.25;2.15;;;;;;;;;;6197522;23;20170;-88
2023/03/06 07:33:28;;;;;;;1.60;1.50;;;;;;;;;;6189621;23;20757;-88
2023/03/06 07:36:01;;;;;;;0.93;0.93;;;;;;;;;;6192635;23;20177;-90
2023/03/06 07:38:45;;;;;;;3.20;2.05;;;;;;;;;;6189432;23;20191;-90
2023/03/06 07:41:28;;;;;;;1.23;1.17;;;;;;;;;;6186561;23;20253;-88
2023/03/06 07:44:03;;;;;;;0.82;0.82;;;;;;;;;;6185448;23;20180;-90
2023/03/06 07:46:32;;;;;;;1.92;1.83;;;;;;;;;;6188088;23;20172;-88
2023/03/06 07:49:00;;;;;;;1.17;1.17;;;;;;;;;;6187450;23;20204;-90
2023/03/06 07:51:40;;;;;;;3.20;2.27;;;;;;;;;;6187543;23;20254;-89
2023/03/06 07:54:14;;;;;;;1.00;1.00;;;;;;;;;;6185356;23;20190;-89
2023/03/06 07:56:58;;;;;;;1.40;1.30;;;;;;;;;;6186508;23;20172;-90
2023/03/06 07:59:29;;;;;;;1.03;1.03;;;;;;;;;;6189117;23;20304;-91
2023/03/06 08:02:08;;;;;;;1.30;0.87;;;;;;;;;;6185888;23;20180;-91
2023/03/06 08:04:49;;;;;;;;;;;;;;;;;;;;;
2023/03/06 08:07:20;;;;;;;1.23;1.23;;;;;;;;;;6184557;23;20167;-91
2023/03/06 08:10:05;;;;;;;;;;;;;;;;;;;;;
2023/03/06 08:12:42;;;;;;;1.37;1.27;;;;;;;;;;6185921;23;20259;-91
2023/03/06 08:15:27;;;;;;;0.90;0.90;;;;;;;;;;6184461;23;20254;-91
2023/03/06 08:17:57;;;;;;;1.67;1.57;;;;;;;;;;6185176;23;20189;-89
2023/03/06 08:20:25;;;;;;;1.37;1.13;;;;;;;;;;6185705;23;20173;-89
2023/03/06 08:22:56;;;;;;;3.70;2.03;;;;;;;;;;6184721;23;20171;-91
2023/03/06 08:25:28;;;;;;;0.90;0.90;;;;;;;;;;6185664;23;20161;-90
2023/03/06 08:28:03;;;;;;;0.90;0.90;;;;;;;;;;6182310;23;20178;-91
2023/03/06 08:30:34;;;;;;;0.50;0.50;;;;;;;;;;6184308;23;20256;-91
2023/03/06 08:33:07;;;;;;;1.07;1.03;;;;;;;;;;6185225;23;20196;-87
2023/03/06 08:35:58;;;;;;;1.53;1.43;;;;;;;;;;6185940;23;20247;-89
2023/03/06 08:38:25;;;;;;;1.73;0.87;;;;;;;;;;6183797;23;20175;-90
2023/03/06 08:41:00;;;;;;;4.00;1.97;;;;;;;;;;6184576;23;20191;-89
2023/03/06 08:43:35;;;;;;;2.20;1.37;;;;;;;;;;6183024;23;20245;-89
2023/03/06 08:46:05;;;;;;;3.63;0.83;;;;;;;;;;6188950;23;20169;-90
2023/03/06 08:48:37;;;;;;;3.13;1.60;;;;;;;;;;6186253;23;20160;-89
2023/03/06 08:51:28;;;;;;;1.00;1.00;;;;;;;;;;6186418;23;20168;-88
2023/03/06 08:54:08;;;;;;;2.33;1.87;;;;;;;;;;6186430;23;20245;-90
2023/03/06 08:56:50;;;;;;;2.37;2.27;;;;;;;;;;6188560;23;20234;-91
2023/03/06 08:59:29;;;;;;;1.13;1.03;;;;;;;;;;6189013;23;20369;-89
2023/03/06 09:02:04;;;;;;;0.37;0.27;;;;;;;;;;6190008;23;20624;-91
2023/03/06 09:04:35;;;;;;;4.07;1.33;;;;;;;;;;6186221;23;20639;-89
2023/03/06 09:07:14;;;;;;;6.30;1.97;;;;;;;;;;6184326;23;20201;-89
2023/03/06 09:09:43;;;;;;;3.73;2.07;;;;;;;;;;6184099;23;20191;-89
2023/03/06 09:12:29;;;;;;;0.87;0.80;;;;;;;;;;6184484;23;20261;-89
2023/03/06 09:15:04;;;;;;;7.83;2.13;;;;;;;;;;6182814;23;20585;-92
2023/03/06 09:17:37;;;;;;;2.57;2.47;;;;;;;;;;6185354;23;20177;-89
2023/03/06 09:20:17;;;;;;;1.93;1.93;;;;;;;;;;6185533;23;20196;-89
2023/03/06 09:23:02;;;;;;;2.10;1.27;;;;;;;;;;6184044;23;20178;-90
2023/03/06 09:25:41;;;;;;;0.83;0.83;;;;;;;;;;6188389;23;20171;-90
2023/03/06 09:28:20;;;;;;;2.60;1.40;;;;;;;;;;6184159;23;20172;-90
2023/03/06 09:31:04;;;;;;;1.03;1.03;;;;;;;;;;6185936;23;20180;-88
2023/03/06 09:33:36;;;;;;;6.00;2.10;;;;;;;;;;6188658;23;20274;-90
2023/03/06 09:36:07;;;;;;;2.03;1.77;;;;;;;;;;6187591;23;20167;-89
2023/03/06 09:38:35;;;;;;;2.00;1.07;;;;;;;;;;6185868;23;20179;-89
2023/03/06 09:41:08;;;;;;;2.80;2.57;;;;;;;;;;6187360;23;20202;-88
2023/03/06 09:43:37;;;;;;;1.30;1.30;;;;;;;;;;6182400;23;20173;-90
2023/03/06 09:46:24;;;;;;;1.83;1.80;;;;;;;;;;6182716;23;20175;-89
2023/03/06 09:49:09;;;;;;;1.50;1.40;;;;;;;;;;6182316;23;20171;-87
2023/03/06 09:51:50;;;;;;;1.97;1.10;;;;;;;;;;6181699;23;20177;-90
2023/03/06 09:54:30;;;;;;;1.20;1.07;;;;;;;;;;6183580;23;20171;-89
2023/03/06 09:57:00;;;;;;;1.67;1.57;;;;;;;;;;6183235;23;20171;-90
2023/03/06 09:59:32;;;;;;;1.60;1.50;;;;;;;;;;6182794;23;20185;-91
2023/03/06 10:02:18;;;;;;;0.70;0.70;;;;;;;;;;6187852;23;20185;-91
2023/03/06 10:04:49;;;;;;;1.70;1.67;;;;;;;;;;6184637;23;20273;-90
2023/03/06 10:07:31;;;;;;;5.80;2.10;;;;;;;;;;6188748;23;20220;-91
2023/03/06 10:10:07;;;;;;;3.33;2.03;;;;;;;;;;6185141;23;20327;-92
2023/03/06 10:12:40;;;;;;;0.82;0.82;;;;;;;;;;6193480;23;20172;-90
2023/03/06 10:15:21;;;;;;;2.05;1.13;;;;;;;;;;6200736;23;20179;-89
2023/03/06 10:18:05;;;;;;;1.43;1.43;;;;;;;;;;6186066;23;20590;-88
2023/03/06 10:20:36;;;;;;;0.67;0.67;;;;;;;;;;6183273;23;20559;-90
2023/03/06 10:23:19;;;;;;;1.80;1.00;;;;;;;;;;6180090;23;20195;-89
2023/03/06 10:25:56;;;;;;;1.88;1.60;;;;;;;;;;6182523;23;20546;-89
2023/03/06 10:28:42;;;;;;;3.38;1.38;;;;;;;;;;6179831;23;20195;-90
2023/03/06 10:31:16;;;;;;;0.20;0.20;;;;;;;;;;6182252;23;20192;-90
2023/03/06 10:34:02;;;;;;;0.77;0.77;;;;;;;;;;6180219;23;20720;-89
2023/03/06 10:36:48;;;;;;;0.75;0.63;;;;;;;;;;6180488;23;20210;-91
2023/03/06 10:39:18;;;;;;;0.45;0.45;;;;;;;;;;6177357;23;20202;-90
2023/03/06 10:41:46;;;;;;;1.85;0.17;;;;;;;;;;6180341;23;20311;-89
2023/03/06 10:44:36;;;;;;;2.08;0.98;;;;;;;;;;6185827;23;20257;-89
2023/03/06 10:47:22;;;;;;;2.15;0.63;;;;;;;;;;6182017;23;20797;-90
2023/03/06 10:50:05;;;;;;;1.02;1.02;;;;;;;;;;6178623;23;20189;-90
2023/03/06 10:53:03;;;;;;;0.28;0.28;;;;;;;;;;6174151;23;20202;-89
2023/03/06 10:55:37;;;;;;;0.30;0.30;;;;;;;;;;6182326;23;20214;-89
2023/03/06 10:58:25;;;;;;;0.32;0.20;;;;;;;;;;6181398;23;20631;-91
2023/03/06 11:01:20;;;;;;;0.90;0.90;;;;;;;;;;6183596;23;20718;-91
2023/03/06 11:03:53;;;;;;;1.13;0.32;;;;;;;;;;6184831;23;20196;-89
2023/03/06 11:06:39;;;;;;;0.60;0.60;;;;;;;;;;6188619;23;20222;-90
2023/03/06 11:09:31;;;;;;;1.02;1.02;;;;;;;;;;6181818;23;20206;-90
2023/03/06 11:15:25;;;;;;;0.77;0.77;;;;;;;;;;6182514;23;20202;-89
2023/03/06 11:18:04;;;;;;;;;;;;;;;;;;;;;
2023/03/06 11:20:38;;;;;;;0.43;0.43;;;;;;;;;;6184293;23;20198;-91
2023/03/06 11:23:20;;;;;;;1.30;0.50;;;;;;;;;;6192265;23;20201;-89
2023/03/06 11:25:49;;;;;;;0.65;0.65;;;;;;;;;;6189769;23;20664;-90
2023/03/06 11:28:26;;;;;;;1.08;1.08;;;;;;;;;;6183073;23;20195;-90
2023/03/06 11:30:57;;;;;;;1.02;0.65;;;;;;;;;;6184438;23;20273;-91
2023/03/06 11:33:32;;;;;;;0.30;0.30;;;;;;;;;;6195414;23;20340;-89
2023/03/06 11:36:10;;;;;;;0.55;0.55;;;;;;;;;;6200262;23;20229;-88
2023/03/06 11:38:45;;;;;;;0.52;0.52;;;;;;;;;;6202165;23;20196;-92
2023/03/06 11:41:16;;;;;;;6.20;2.75;;;;;;;;;;6201179;23;20193;-89
2023/03/06 11:43:54;;;;;;;0.40;0.40;;;;;;;;;;6193033;23;20271;-90
2023/03/06 11:46:24;;;;;;;0.40;0.40;;;;;;;;;;6197499;23;20201;-89
2023/03/06 11:49:15;;;;;;;0.32;0.32;;;;;;;;;;6198701;23;20193;-88
2023/03/06 11:51:45;;;;;;;0.80;0.57;;;;;;;;;;6199324;23;20202;-89
2023/03/06 11:54:19;;;;;;;1.90;0.80;;;;;;;;;;6195087;23;20722;-88
2023/03/06 11:57:04;;;;;;;0.38;0.38;;;;;;;;;;6182195;23;20673;-90
2023/03/06 11:59:47;;;;;;;0.80;0.30;;;;;;;;;;6183646;23;20269;-90
2023/03/06 12:02:33;;;;;;;2.42;0.52;;;;;;;;;;6167102;23;20196;-92
2023/03/06 12:07:57;;;;;;;0.15;0.15;;;;;;;;;;6170289;23;20195;-89
2023/03/06 12:10:44;;;;;;;2.53;0.95;;;;;;;;;;6184222;23;20205;-90
2023/03/06 12:13:48;;;;;;;1.35;0.65;;;;;;;;;;6182358;23;20214;-89
2023/03/06 12:16:43;;;;;;;1.13;1.13;;;;;;;;;;6181284;23;20200;-88
2023/03/06 12:19:40;;;;;;;;;;;;;;;;;;;;;
2023/03/06 12:22:26;;;;;;;0.25;0.25;;;;;;;;;;6119041;23;20276;-91
2023/03/06 12:25:20;;;;;;;0.63;0.63;;;;;;;;;;6126444;23;20546;-91
2023/03/06 12:30:41;;;;;;;0.47;0.47;;;;;;;;;;6179209;23;20207;-90
2023/03/06 12:33:15;;;;;;;0.25;0.25;;;;;;;;;;6201908;23;20212;-89
2023/03/06 12:35:59;;;;;;;0.47;0.47;;;;;;;;;;6204427;23;20210;-91
2023/03/06 12:38:46;;;;;;;0.32;0.32;;;;;;;;;;6186570;23;20255;-88
2023/03/06 12:41:30;;;;;;;0.17;0.17;;;;;;;;;;6172505;23;20278;-91
2023/03/06 12:47:01;;;;;;;0.10;0.10;;;;;;;;;;6178474;23;20203;-90
2023/03/06 12:49:37;;;;;;;0.40;0.40;;;;;;;;;;6182286;23;20202;-90
2023/03/06 12:52:09;;;;;;;0.50;0.50;;;;;;;;;;6182010;23;20253;-91
2023/03/06 12:54:41;;;;;;;1.27;0.38;;;;;;;;;;6183644;23;20690;-89
2023/03/06 12:57:11;;;;;;;0.40;0.40;;;;;;;;;;6185508;23;20227;-90
2023/03/06 12:59:46;;;;;;;0.25;0.25;;;;;;;;;;6182892;23;20193;-91
2023/03/06 13:02:42;;;;;;;2.35;0.98;;;;;;;;;;6182242;23;20192;-91
2023/03/06 13:05:39;;;;;;;0.73;0.47;;;;;;;;;;6181585;23;20547;-90
2023/03/06 13:08:24;;;;;;;2.17;0.60;;;;;;;;;;6189459;23;20648;-91
2023/03/06 13:11:15;;;;;;;0.53;0.53;;;;;;;;;;6165589;23;20203;-89
2023/03/06 13:13:46;;;;;;;0.25;0.25;;;;;;;;;;6182491;23;20209;-89
2023/03/06 13:16:25;;;;;;;0.13;0.13;;;;;;;;;;6183234;23;20198;-89
2023/03/06 13:19:03;;;;;;;0.73;0.10;;;;;;;;;;6178315;23;20198;-90
2023/03/06 13:24:39;;;;;;;0.20;0.20;;;;;;;;;;6177172;23;20264;-88
2023/03/06 13:27:33;;;;;;;0.60;0.60;;;;;;;;;;6180896;23;20239;-88
2023/03/06 13:30:20;;;;;;;1.02;0.90;;;;;;;;;;6177370;23;20675;-90
2023/03/06 13:35:51;;;;;;;2.05;1.13;;;;;;;;;;6156035;23;20260;-91
2023/03/06 13:39:03;;;;;;;1.43;1.03;;;;;;;;;;6180911;23;20224;-90
2023/03/06 13:42:09;;;;;;;0.03;0.03;;;;;;;;;;6182413;23;20282;-91
2023/03/06 13:44:59;;;;;;;0.20;0.20;;;;;;;;;;6183501;23;20192;-90
2023/03/06 13:47:41;;;;;;;0.17;0.17;;;;;;;;;;6182186;23;20664;-91
2023/03/06 13:50:43;;;;;;;0.10;0.10;;;;;;;;;;6182611;23;20202;-90
2023/03/06 13:53:31;;;;;;;0.27;0.27;;;;;;;;;;6181394;23;20580;-89
2023/03/06 13:56:11;;;;;;;0.53;0.40;;;;;;;;;;6181575;23;20679;-89
2023/03/06 13:58:56;;;;;;;0.20;0.20;;;;;;;;;;6182813;23;20202;-90
2023/03/06 14:01:28;;;;;;;0.07;0.07;;;;;;;;;;6182955;23;20256;-90
2023/03/06 14:04:14;;;;;;;0.20;0.20;;;;;;;;;;6179673;23;20781;-91
2023/03/06 14:07:02;;;;;;;0.30;0.30;;;;;;;;;;6183367;23;20231;-90
2023/03/06 14:09:35;;;;;;;0.10;0.10;;;;;;;;;;6181989;23;20825;-89
2023/03/06 14:12:08;;;;;;;0.20;0.20;;;;;;;;;;6183830;23;20590;-89
2023/03/06 14:14:40;;;;;;;1.10;0.20;;;;;;;;;;6183760;23;20198;-89
2023/03/06 14:17:18;;;;;;;0.27;0.27;;;;;;;;;;6184280;23;20170;-89
2023/03/06 14:19:49;;;;;;;0.47;0.47;;;;;;;;;;6183470;23;20172;-88
2023/03/06 14:22:25;;;;;;;2.20;0.50;;;;;;;;;;6183497;23;20244;-91
2023/03/06 14:25:01;;;;;;;0.53;0.53;;;;;;;;;;6182102;23;20187;-89
2023/03/06 14:27:45;;;;;;;0.30;0.30;;;;;;;;;;6183384;23;20191;-90
2023/03/06 14:30:26;;;;;;;0.20;0.20;;;;;;;;;;6183301;23;20589;-88
2023/03/06 14:33:01;;;;;;;0.00;0.00;;;;;;;;;;6183006;23;20167;-90
2023/03/06 14:35:42;;;;;;;0.10;0.10;;;;;;;;;;6188859;23;20206;-89
2023/03/06 14:38:28;;;;;;;0.17;0.17;;;;;;;;;;6185984;23;21008;-90
2023/03/06 14:41:04;;;;;;;0.30;0.30;;;;;;;;;;6183614;23;20188;-90
2023/03/06 14:43:42;;;;;;;0.40;0.40;;;;;;;;;;6183211;23;20176;-90
2023/03/06 14:46:24;;;;;;;0.20;0.20;;;;;;;;;;6185109;23;20254;-88
2023/03/06 14:49:04;;;;;;;0.03;0.03;;;;;;;;;;6185658;23;20321;-89
2023/03/06 14:51:42;;;;;;;0.10;0.10;;;;;;;;;;6194230;23;20168;-89
2023/03/06 14:54:29;;;;;;;0.13;0.13;;;;;;;;;;6192956;23;20200;-89
2023/03/06 14:57:02;;;;;;;0.40;0.40;;;;;;;;;;6185183;23;20229;-90
2023/03/06 14:59:38;;;;;;;0.10;0.10;;;;;;;;;;6186637;23;20243;-91
2023/03/06 15:02:10;;;;;;;0.10;0.10;;;;;;;;;;6183401;23;20170;-89
2023/03/06 15:04:41;;;;;;;1.40;0.40;;;;;;;;;;6184938;23;20204;-89
2023/03/06 15:07:12;;;;;;;0.30;0.30;;;;;;;;;;6184142;23;20249;-91
2023/03/06 15:12:37;;;;;;;1.03;1.03;;;;;;;;;;6182661;23;20176;-90
2023/03/06 15:15:25;;;;;;;0.60;0.60;;;;;;;;;;6184398;23;20200;-90
2023/03/06 15:20:42;;;;;;;1.63;1.43;;;;;;;;;;6175729;23;20239;-90
2023/03/06 15:23:21;;;;;;;0.03;0.03;;;;;;;;;;6184817;23;20171;-88
2023/03/06 15:26:14;;;;;;;1.30;1.20;;;;;;;;;;6185683;23;20231;-90
2023/03/06 15:28:43;;;;;;;0.40;0.40;;;;;;;;;;6184731;23;20495;-90
2023/03/06 15:31:22;;;;;;;1.70;0.50;;;;;;;;;;6183567;23;20171;-88
2023/03/06 15:34:26;;;;;;;0.20;0.20;;;;;;;;;;6183854;23;20680;-89
2023/03/06 15:37:03;;;;;;;0.30;0.30;;;;;;;;;;6183212;23;20200;-90
2023/03/06 15:39:37;;;;;;;1.43;1.33;;;;;;;;;;6183654;23;20195;-90
2023/03/06 15:42:33;;;;;;;0.33;0.33;;;;;;;;;;6184086;23;20197;-88
2023/03/06 15:45:04;;;;;;;2.17;1.00;;;;;;;;;;6184250;23;20647;-91
2023/03/06 15:47:33;;;;;;;0.30;0.30;;;;;;;;;;6183259;23;20176;-89
2023/03/06 15:52:58;;;;;;;0.20;0.20;;;;;;;;;;6181345;23;20169;-88
2023/03/06 15:55:38;;;;;;;;;;;;;;;;;;;;;
2023/03/06 15:58:22;;;;;;;0.00;0.00;;;;;;;;;;6188300;23;20175;-89
2023/03/06 16:00:54;;;;;;;1.03;0.60;;;;;;;;;;6198905;23;20183;-89
2023/03/06 16:03:48;;;;;;;0.10;0.10;;;;;;;;;;6199161;23;20173;-88
2023/03/06 16:06:19;;;;;;;0.20;0.20;;;;;;;;;;6198510;23;20172;-88
2023/03/06 16:08:59;;;;;;;0.23;0.23;;;;;;;;;;6200476;23;20169;-89
2023/03/06 16:11:35;;;;;;;0.30;0.30;;;;;;;;;;6202931;23;20248;-88
2023/03/06 16:16:56;;;;;;;0.20;0.20;;;;;;;;;;6188107;23;20535;-90
2023/03/06 16:19:26;;;;;;;0.30;0.30;;;;;;;;;;6162313;23;20236;-91
2023/03/06 16:21:59;;;;;;;0.30;0.30;;;;;;;;;;6187748;23;20226;-90
2023/03/06 16:24:31;;;;;;;0.00;0.00;;;;;;;;;;6189690;23;20178;-91
2023/03/06 16:27:04;;;;;;;0.23;0.20;;;;;;;;;;6198695;23;20697;-89
2023/03/06 16:32:37;;;;;;;0.10;0.10;;;;;;;;;;6157512;23;20205;-89